Time;durP1;ratioP1;P1;durP2;ratioP2;P2;SDS_P1;SDS_P2;PMS_P1;PMS_P2;Temp;Humidity;BMP_temperature;BMP_pressure;BME280_temperature;BME280_humidity;BME280_pressure;Samples;Min_cycle;Max_cycle;Signal;HPM_P1;HPM_P2
2021/10/04 02:46:01;;;;;;;21.10;11.93;;;14.20;99.90;;;;;;5379901;24;20153;-85
2021/10/04 02:48:27;;;;;;;17.58;10.98;;;14.20;99.90;;;;;;4721179;30;20041;-83
2021/10/04 02:50:53;;;;;;;16.98;11.38;;;14.20;99.90;;;;;;4736233;30;20037;-85
2021/10/04 02:53:19;;;;;;;16.63;10.52;;;14.20;99.90;;;;;;4737906;30;20358;-85
2021/10/04 02:55:44;;;;;;;16.50;9.70;;;14.20;99.90;;;;;;4723319;30;20209;-84
2021/10/04 02:58:10;;;;;;;18.60;11.73;;;14.20;99.90;;;;;;4722990;30;20332;-84
2021/10/04 03:00:37;;;;;;;21.50;13.10;;;14.20;99.90;;;;;;4722649;30;20043;-85
2021/10/04 03:03:04;;;;;;;17.30;11.13;;;14.20;99.90;;;;;;4722986;30;20113;-85
2021/10/04 03:05:31;;;;;;;25.55;16.17;;;14.10;99.90;;;;;;4722538;30;20024;-85
2021/10/04 03:07:57;;;;;;;21.40;11.18;;;14.10;99.90;;;;;;4722754;30;20028;-85
2021/10/04 03:10:23;;;;;;;16.93;11.73;;;14.10;99.90;;;;;;4722730;30;20235;-85
2021/10/04 03:12:49;;;;;;;27.35;16.40;;;14.10;99.90;;;;;;4722042;30;20041;-85
2021/10/04 03:15:14;;;;;;;24.73;15.32;;;14.10;99.90;;;;;;4722351;30;20039;-85
2021/10/04 03:17:40;;;;;;;22.00;13.38;;;14.10;99.90;;;;;;4736645;30;20079;-85
2021/10/04 03:20:07;;;;;;;16.15;10.90;;;14.10;99.90;;;;;;4751026;30;20090;-85
2021/10/04 03:22:33;;;;;;;18.40;11.50;;;14.10;99.90;;;;;;4736793;30;20392;-85
2021/10/04 03:24:59;;;;;;;21.77;13.05;;;14.10;99.90;;;;;;4737534;30;20103;-84
2021/10/04 03:27:24;;;;;;;30.52;17.92;;;14.00;99.90;;;;;;4751477;30;20105;-84
2021/10/04 03:29:50;;;;;;;30.50;16.48;;;14.00;99.90;;;;;;4737070;30;20052;-84
2021/10/04 03:32:16;;;;;;;22.17;12.82;;;14.00;99.90;;;;;;4736774;30;20036;-84
2021/10/04 03:34:42;;;;;;;26.88;17.48;;;14.00;99.90;;;;;;4736922;30;20032;-85
2021/10/04 03:37:08;;;;;;;24.73;16.67;;;14.00;99.90;;;;;;4736810;30;20103;-84
2021/10/04 03:39:34;;;;;;;22.23;13.82;;;14.10;99.90;;;;;;4736925;30;20154;-85
2021/10/04 03:42:00;;;;;;;20.35;12.70;;;14.10;99.90;;;;;;4751271;30;20045;-85
2021/10/04 03:44:26;;;;;;;21.87;13.77;;;14.10;99.90;;;;;;4736659;30;20095;-85
2021/10/04 03:46:52;;;;;;;25.75;15.70;;;14.10;99.90;;;;;;4747237;30;20083;-85
2021/10/04 03:49:17;;;;;;;20.35;13.13;;;14.00;99.90;;;;;;4718383;30;20028;-85
2021/10/04 03:51:43;;;;;;;19.95;13.88;;;14.00;99.90;;;;;;4747657;30;20221;-85
2021/10/04 03:54:09;;;;;;;23.75;14.13;;;14.00;99.90;;;;;;4747757;30;20428;-85
2021/10/04 03:56:35;;;;;;;27.60;14.23;;;13.90;99.90;;;;;;4719488;30;20040;-85
2021/10/04 03:59:00;;;;;;;29.13;15.15;;;13.90;99.90;;;;;;4719627;30;20031;-85
2021/10/04 04:01:27;;;;;;;27.63;16.83;;;13.90;99.90;;;;;;4733108;30;20040;-85
2021/10/04 04:03:52;;;;;;;27.17;18.10;;;13.90;99.90;;;;;;4748391;30;20067;-85
2021/10/04 04:06:19;;;;;;;26.40;16.13;;;13.90;99.90;;;;;;4719511;30;20103;-85
2021/10/04 04:08:45;;;;;;;24.05;15.30;;;14.00;99.90;;;;;;4733870;30;20083;-85
2021/10/04 04:11:11;;;;;;;23.17;15.07;;;14.00;99.90;;;;;;4719795;30;20040;-85
2021/10/04 04:13:37;;;;;;;32.92;21.08;;;14.00;99.90;;;;;;4747652;30;20252;-85
2021/10/04 04:16:05;;;;;;;32.47;18.92;;;13.90;99.90;;;;;;4718788;30;20044;-85
2021/10/04 04:18:34;;;;;;;42.08;23.40;;;14.00;99.90;;;;;;4704875;30;20043;-85
2021/10/04 04:20:59;;;;;;;37.20;23.70;;;14.00;99.90;;;;;;4718505;30;20065;-85
2021/10/04 04:23:25;;;;;;;35.42;20.75;;;14.00;99.90;;;;;;4719439;30;20087;-85
2021/10/04 04:25:51;;;;;;;34.33;19.10;;;14.00;99.90;;;;;;4730983;30;20105;-85
2021/10/04 04:28:17;;;;;;;29.55;19.60;;;14.00;99.90;;;;;;4717161;30;20083;-85
2021/10/04 04:30:43;;;;;;;33.00;20.52;;;14.00;99.90;;;;;;4717214;30;20121;-85
2021/10/04 04:33:09;;;;;;;37.70;21.83;;;14.00;99.90;;;;;;4717390;30;20041;-85
2021/10/04 04:35:34;;;;;;;34.10;21.27;;;14.00;99.90;;;;;;4702715;30;20037;-85
2021/10/04 04:38:00;;;;;;;52.42;24.70;;;14.00;99.90;;;;;;4702531;30;20072;-85
2021/10/04 04:40:26;;;;;;;35.13;23.10;;;14.00;99.90;;;;;;4716771;30;20033;-84
2021/10/04 04:42:51;;;;;;;38.05;23.52;;;14.00;99.90;;;;;;4717453;30;20116;-85
2021/10/04 04:45:19;;;;;;;45.55;25.85;;;14.00;99.90;;;;;;4717091;30;20025;-84
2021/10/04 04:47:47;;;;;;;57.42;28.58;;;14.00;99.90;;;;;;4716756;30;20080;-85
2021/10/04 04:50:13;;;;;;;42.85;24.13;;;14.10;99.90;;;;;;4731466;30;20029;-85
2021/10/04 04:52:39;;;;;;;44.05;25.35;;;14.10;99.90;;;;;;4717244;30;20041;-85
2021/10/04 04:55:06;;;;;;;40.78;24.63;;;14.10;99.90;;;;;;4716563;30;20072;-85
2021/10/04 04:57:32;;;;;;;54.50;31.02;;;14.10;99.90;;;;;;4716809;30;20050;-85
2021/10/04 04:59:58;;;;;;;53.53;31.77;;;14.10;99.90;;;;;;4716332;30;20104;-85
2021/10/04 05:02:27;;;;;;;48.42;26.88;;;14.10;99.90;;;;;;4716253;30;20048;-85
2021/10/04 05:04:54;;;;;;;52.10;29.77;;;14.10;99.90;;;;;;4716333;30;20029;-85
2021/10/04 05:07:19;;;;;;;49.60;29.95;;;14.10;99.90;;;;;;4716150;30;20036;-85
2021/10/04 05:09:45;;;;;;;46.40;27.17;;;14.10;99.90;;;;;;4716026;30;20116;-85
2021/10/04 05:12:11;;;;;;;54.88;30.67;;;14.10;99.90;;;;;;4716214;30;20081;-85
2021/10/04 05:14:37;;;;;;;56.58;34.15;;;14.20;99.90;;;;;;4715722;30;20036;-85
2021/10/04 05:17:03;;;;;;;68.03;37.28;;;14.20;99.90;;;;;;4713149;30;20198;-85
2021/10/04 05:19:29;;;;;;;49.75;30.33;;;14.20;99.90;;;;;;4699078;30;20101;-85
2021/10/04 05:21:54;;;;;;;50.45;31.17;;;14.20;99.90;;;;;;4698889;30;20262;-85
2021/10/04 05:24:20;;;;;;;49.78;28.77;;;14.30;99.90;;;;;;4705370;30;20037;-85
2021/10/04 05:26:46;;;;;;;56.42;29.92;;;14.30;99.90;;;;;;4699739;30;20204;-85
2021/10/04 05:29:12;;;;;;;52.95;30.75;;;14.30;99.90;;;;;;4684659;30;20030;-84
2021/10/04 05:31:38;;;;;;;40.10;25.75;;;14.30;99.90;;;;;;4703747;30;20037;-85
2021/10/04 05:34:04;;;;;;;50.10;27.83;;;14.40;99.90;;;;;;4724519;30;20026;-85
2021/10/04 05:36:31;;;;;;;54.00;29.88;;;14.40;99.90;;;;;;4697660;30;20129;-85
2021/10/04 05:38:58;;;;;;;39.58;24.98;;;14.40;99.90;;;;;;4700358;30;20059;-85
2021/10/04 05:41:23;;;;;;;60.72;31.02;;;14.50;99.90;;;;;;4728960;30;20105;-85
2021/10/04 05:43:49;;;;;;;46.30;26.10;;;14.50;99.90;;;;;;4730032;30;20317;-85
2021/10/04 05:46:15;;;;;;;45.60;28.58;;;14.50;99.90;;;;;;4729833;30;20124;-85
2021/10/04 05:48:41;;;;;;;46.65;27.80;;;14.50;99.90;;;;;;4716963;30;20025;-85
2021/10/04 05:51:10;;;;;;;45.83;26.30;;;14.50;99.90;;;;;;4716537;30;20033;-84
2021/10/04 05:53:36;;;;;;;41.25;25.77;;;14.60;99.90;;;;;;4731686;30;20037;-84
2021/10/04 05:56:03;;;;;;;46.67;27.25;;;14.60;99.90;;;;;;4718530;30;20053;-84
2021/10/04 05:58:29;;;;;;;46.38;28.83;;;14.60;99.90;;;;;;4728972;30;20079;-84
2021/10/04 06:00:55;;;;;;;43.58;27.95;;;14.60;99.90;;;;;;4731590;30;20033;-84
2021/10/04 06:03:21;;;;;;;52.20;29.52;;;14.60;99.90;;;;;;4717125;30;20040;-84
2021/10/04 06:05:46;;;;;;;52.25;30.50;;;14.60;99.90;;;;;;4717340;30;20033;-84
2021/10/04 06:08:12;;;;;;;63.38;35.85;;;14.70;99.90;;;;;;4716846;30;20079;-84
2021/10/04 06:10:38;;;;;;;57.00;32.53;;;14.70;99.90;;;;;;4731574;30;20064;-84
2021/10/04 06:13:04;;;;;;;65.57;32.40;;;14.70;99.90;;;;;;4716922;30;20263;-84
2021/10/04 06:15:30;;;;;;;56.53;32.58;;;14.70;99.90;;;;;;4739942;30;20044;-84
2021/10/04 06:17:56;;;;;;;54.37;31.30;;;14.70;99.90;;;;;;4731788;30;20048;-85
2021/10/04 06:20:22;;;;;;;61.58;33.60;;;14.70;99.90;;;;;;4716754;30;20040;-85
2021/10/04 06:22:48;;;;;;;111.90;43.67;;;14.70;99.90;;;;;;4717613;30;20040;-85
2021/10/04 06:25:15;;;;;;;118.63;44.42;;;14.80;99.90;;;;;;4731017;30;20044;-85
2021/10/04 06:27:55;;;;;;;86.97;40.55;;;14.80;99.90;;;;;;4722000;30;20049;-86
2021/10/04 06:30:21;;;;;;;114.28;47.00;;;14.80;99.90;;;;;;4715326;30;20040;-85
2021/10/04 06:32:47;;;;;;;111.03;44.50;;;14.90;99.90;;;;;;4717462;30;20029;-85
2021/10/04 06:35:13;;;;;;;89.07;40.25;;;14.90;99.90;;;;;;4728955;30;20031;-85
2021/10/04 06:37:39;;;;;;;75.88;38.78;;;15.00;99.90;;;;;;4710610;30;20033;-85
2021/10/04 06:40:06;;;;;;;92.82;40.03;;;15.20;99.90;;;;;;4717055;30;20044;-85
2021/10/04 06:42:32;;;;;;;74.25;37.95;;;15.30;99.90;;;;;;4706700;30;20068;-85
2021/10/04 06:44:58;;;;;;;70.03;34.33;;;15.50;99.90;;;;;;4717281;30;20049;-85
2021/10/04 06:47:25;;;;;;;82.43;34.83;;;15.70;99.90;;;;;;4743291;30;20085;-85
2021/10/04 06:49:51;;;;;;;55.63;30.73;;;15.90;99.90;;;;;;4731260;30;20057;-84
2021/10/04 06:52:17;;;;;;;50.75;29.17;;;15.90;99.90;;;;;;4730976;30;20044;-83
2021/10/04 06:54:42;;;;;;;47.78;27.95;;;16.00;99.90;;;;;;4715073;30;20029;-86
2021/10/04 06:57:08;;;;;;;49.35;27.27;;;15.90;99.90;;;;;;4729614;30;20059;-86
2021/10/04 06:59:34;;;;;;;50.90;29.42;;;15.90;99.90;;;;;;4714701;30;20045;-87
2021/10/04 07:02:01;;;;;;;49.22;26.85;;;15.90;99.90;;;;;;4714260;30;20041;-87
2021/10/04 07:04:27;;;;;;;53.35;27.83;;;15.90;99.90;;;;;;4714531;30;20332;-86
2021/10/04 07:06:53;;;;;;;55.28;27.83;;;16.00;99.90;;;;;;4714542;30;20079;-86
2021/10/04 07:09:19;;;;;;;51.10;29.35;;;16.00;99.90;;;;;;4714614;30;20111;-86
2021/10/04 07:11:45;;;;;;;51.58;26.90;;;16.10;99.90;;;;;;4714297;30;20037;-86
2021/10/04 07:14:11;;;;;;;46.00;25.40;;;16.20;99.90;;;;;;4714301;30;20032;-86
2021/10/04 07:16:37;;;;;;;42.45;24.73;;;16.30;99.90;;;;;;4714375;30;20101;-86
2021/10/04 07:19:03;;;;;;;41.33;23.73;;;16.30;99.90;;;;;;4699970;30;20062;-86
2021/10/04 07:21:30;;;;;;;36.65;23.85;;;16.50;99.90;;;;;;4700066;30;20126;-86
2021/10/04 07:23:56;;;;;;;42.63;23.23;;;16.50;99.90;;;;;;4713363;30;20087;-86
2021/10/04 07:26:23;;;;;;;41.78;24.30;;;16.60;99.90;;;;;;4714411;30;20037;-86
2021/10/04 07:28:50;;;;;;;37.65;21.50;;;16.70;99.90;;;;;;4714325;30;20061;-86
2021/10/04 07:31:15;;;;;;;40.00;23.33;;;16.70;99.90;;;;;;4713442;30;20210;-86
2021/10/04 07:33:41;;;;;;;37.35;20.45;;;16.80;99.90;;;;;;4714227;30;20037;-86
2021/10/04 07:36:07;;;;;;;35.55;19.77;;;16.90;99.90;;;;;;4713827;30;20029;-87
2021/10/04 07:38:35;;;;;;;32.03;21.33;;;17.10;99.90;;;;;;4728027;30;20032;-87
2021/10/04 07:41:01;;;;;;;36.85;21.13;;;17.10;99.70;;;;;;4714029;30;20221;-87
2021/10/04 07:43:26;;;;;;;34.50;20.48;;;17.20;99.60;;;;;;4708976;30;20037;-86
2021/10/04 07:45:52;;;;;;;33.25;20.40;;;17.30;99.60;;;;;;4705305;30;20818;-87
2021/10/04 07:48:18;;;;;;;36.05;21.40;;;17.50;99.30;;;;;;4722550;30;20040;-86
2021/10/04 07:50:44;;;;;;;36.38;21.75;;;17.60;99.00;;;;;;4710944;30;20100;-86
2021/10/04 07:53:11;;;;;;;33.27;20.27;;;17.70;98.80;;;;;;4703120;30;20321;-86
2021/10/04 07:55:40;;;;;;;;;;;17.80;98.40;;;;;;4705279;30;20037;-87
2021/10/04 07:58:06;;;;;;;41.45;22.70;;;17.90;98.00;;;;;;4708271;30;19911;-87
2021/10/04 08:00:33;;;;;;;38.85;22.88;;;18.00;97.70;;;;;;4706330;30;20048;-87
2021/10/04 08:02:59;;;;;;;42.10;22.88;;;18.10;97.40;;;;;;4715116;30;20029;-86
2021/10/04 08:05:24;;;;;;;36.90;21.85;;;18.10;97.20;;;;;;4714426;30;20037;-86
2021/10/04 08:07:50;;;;;;;40.40;24.33;;;18.20;97.30;;;;;;4728621;30;20044;-86
2021/10/04 08:10:16;;;;;;;36.85;23.77;;;18.40;96.60;;;;;;4710837;30;20033;-87
2021/10/04 08:12:43;;;;;;;36.50;23.42;;;18.40;96.50;;;;;;4716153;30;20034;-87
2021/10/04 08:15:09;;;;;;;34.08;22.15;;;18.50;96.40;;;;;;4697143;30;20325;-87
2021/10/04 08:17:36;;;;;;;41.30;21.92;;;18.70;96.10;;;;;;4746324;30;20048;-87
2021/10/04 08:20:03;;;;;;;31.15;21.25;;;18.80;95.50;;;;;;4718141;30;20043;-87
2021/10/04 08:22:32;;;;;;;28.77;21.20;;;18.90;94.90;;;;;;4717871;30;20058;-87
2021/10/04 08:24:58;;;;;;;36.45;22.45;;;19.00;95.50;;;;;;4731149;30;20029;-87
2021/10/04 08:27:24;;;;;;;35.47;22.38;;;19.30;95.10;;;;;;4717575;30;20043;-87
2021/10/04 08:29:50;;;;;;;34.80;20.85;;;19.40;95.10;;;;;;4731784;30;20371;-87
2021/10/04 08:32:16;;;;;;;38.75;22.00;;;19.50;94.90;;;;;;4717139;30;20355;-87
2021/10/04 08:34:41;;;;;;;38.17;22.23;;;19.60;94.10;;;;;;4717352;30;20036;-87
2021/10/04 08:37:07;;;;;;;36.10;22.77;;;19.80;94.20;;;;;;4731921;30;20062;-87
2021/10/04 08:39:33;;;;;;;32.83;23.40;;;20.00;94.10;;;;;;4731441;30;20328;-87
2021/10/04 08:41:59;;;;;;;36.40;21.50;;;20.10;93.70;;;;;;4731890;30;20068;-88
2021/10/04 08:44:26;;;;;;;27.07;19.77;;;20.30;92.70;;;;;;4731643;30;20020;-87
2021/10/04 08:46:52;;;;;;;37.13;20.48;;;20.40;92.70;;;;;;4748900;30;20052;-88
2021/10/04 08:49:18;;;;;;;32.47;20.92;;;20.40;92.40;;;;;;4733434;30;20332;-87
2021/10/04 08:51:50;;;;;;;28.58;19.00;;;20.60;92.50;;;;;;4718841;30;20324;-87
2021/10/04 08:54:21;;;;;;;31.38;19.95;;;20.60;92.00;;;;;;4748293;30;20049;-87
2021/10/04 08:56:47;;;;;;;25.90;20.00;;;20.70;91.70;;;;;;4733706;30;20032;-87
2021/10/04 08:59:14;;;;;;;27.40;18.10;;;20.80;91.30;;;;;;4733176;30;20040;-87
2021/10/04 09:01:39;;;;;;;28.90;19.25;;;20.90;91.10;;;;;;4733722;30;20036;-87
2021/10/04 09:04:05;;;;;;;29.45;18.95;;;21.00;90.40;;;;;;4733936;30;20033;-88
2021/10/04 09:06:40;;;;;;;27.08;18.00;;;21.10;91.00;;;;;;4732681;30;20439;-87
2021/10/04 09:09:12;;;;;;;25.63;16.15;;;21.20;90.60;;;;;;4747368;30;20028;-87
2021/10/04 09:11:43;;;;;;;22.60;16.92;;;21.40;90.60;;;;;;4728062;30;20035;-87
2021/10/04 09:14:09;;;;;;;24.42;16.88;;;21.50;90.20;;;;;;4700373;30;20122;-87
2021/10/04 09:16:50;;;;;;;27.30;17.20;;;21.60;89.40;;;;;;4737197;30;20041;-87
2021/10/04 09:19:21;;;;;;;23.33;16.38;;;21.70;88.90;;;;;;4735443;30;20035;-87
2021/10/04 09:22:06;;;;;;;25.63;16.00;;;21.70;89.90;;;;;;4734526;30;20067;-87
2021/10/04 09:24:33;;;;;;;22.90;15.75;;;21.80;87.60;;;;;;4733888;30;20387;-87
2021/10/04 09:26:58;;;;;;;22.35;15.60;;;22.00;89.10;;;;;;4734164;30;20042;-87
2021/10/04 09:29:27;;;;;;;30.40;17.40;;;22.10;86.20;;;;;;4734260;30;20041;-87
2021/10/04 09:31:53;;;;;;;22.25;15.25;;;22.10;86.00;;;;;;4733410;30;20043;-80
2021/10/04 09:34:20;;;;;;;24.60;15.55;;;22.20;87.70;;;;;;4725214;30;20033;-81
2021/10/04 09:36:56;;;;;;;23.92;16.52;;;22.50;85.80;;;;;;4733921;30;20040;-86
2021/10/04 09:39:26;;;;;;;23.75;16.38;;;22.60;85.30;;;;;;4718677;30;20388;-86
2021/10/04 09:42:11;;;;;;;24.25;16.17;;;22.70;83.60;;;;;;4718232;30;20067;-87
2021/10/04 09:44:48;;;;;;;22.97;15.37;;;22.70;82.70;;;;;;4718667;30;20029;-86
2021/10/04 09:47:21;;;;;;;22.92;16.42;;;22.80;83.20;;;;;;4717810;30;20061;-86
2021/10/04 09:50:13;;;;;;;23.85;14.75;;;22.90;82.90;;;;;;4718635;30;20065;-86
2021/10/04 09:52:39;;;;;;;24.40;14.18;;;23.00;81.30;;;;;;4703744;30;20044;-87
2021/10/04 09:55:32;;;;;;;21.27;14.65;;;23.00;80.20;;;;;;4703836;30;20037;-87
2021/10/04 09:58:16;;;;;;;21.95;13.50;;;23.10;79.50;;;;;;4717886;30;20274;-87
2021/10/04 10:00:53;;;;;;;22.35;12.98;;;23.00;81.70;;;;;;4703733;30;20040;-87
2021/10/04 10:03:23;;;;;;;;;;;23.10;82.30;;;;;;4718565;30;20037;-87
2021/10/04 10:05:53;;;;;;;18.40;13.00;;;23.30;80.40;;;;;;4732436;30;19949;-87
2021/10/04 10:08:24;;;;;;;18.00;12.55;;;23.40;80.30;;;;;;4718446;30;20313;-87
2021/10/04 10:10:52;;;;;;;25.48;13.52;;;23.50;80.00;;;;;;4717629;30;20029;-87
2021/10/04 10:13:20;;;;;;;18.63;12.38;;;23.50;78.90;;;;;;4732883;30;20091;-87
2021/10/04 10:15:55;;;;;;;17.13;13.23;;;23.40;78.60;;;;;;4717663;30;20033;-87
2021/10/04 10:18:28;;;;;;;22.25;13.15;;;23.40;79.40;;;;;;4717169;30;20063;-86
2021/10/04 10:20:58;;;;;;;18.27;12.38;;;23.40;79.50;;;;;;4717658;30;20044;-86
2021/10/04 10:23:48;;;;;;;19.50;12.88;;;23.50;79.70;;;;;;4718165;30;20033;-86
2021/10/04 10:26:37;;;;;;;23.88;12.80;;;23.70;79.40;;;;;;4719548;30;20124;-86
2021/10/04 10:29:09;;;;;;;21.67;13.20;;;23.80;77.80;;;;;;4718168;30;20041;-85
2021/10/04 10:31:58;;;;;;;22.75;12.77;;;23.90;76.60;;;;;;4718457;30;20029;-86
2021/10/04 10:34:30;;;;;;;18.27;13.10;;;24.00;76.00;;;;;;4698035;30;20049;-86
2021/10/04 10:37:18;;;;;;;18.40;11.70;;;23.90;76.80;;;;;;4698372;30;20050;-86
2021/10/04 10:39:47;;;;;;;25.85;12.57;;;24.00;76.70;;;;;;4697796;30;20038;-86
2021/10/04 10:42:26;;;;;;;18.15;11.43;;;24.20;76.30;;;;;;4668958;30;20245;-86
2021/10/04 10:44:57;;;;;;;16.55;12.18;;;24.20;75.00;;;;;;4683674;30;20296;-86
2021/10/04 10:47:35;;;;;;;19.35;12.35;;;24.20;75.50;;;;;;4683723;30;20061;-86
2021/10/04 10:50:28;;;;;;;22.30;13.63;;;24.20;74.90;;;;;;4669158;30;20048;-85
2021/10/04 10:52:56;;;;;;;17.55;12.32;;;24.20;74.50;;;;;;4682185;30;20081;-84
2021/10/04 10:55:22;;;;;;;17.27;12.13;;;24.30;73.50;;;;;;4667605;30;20088;-86
2021/10/04 10:58:12;;;;;;;17.65;12.00;;;24.40;74.80;;;;;;4696014;30;20331;-85
2021/10/04 11:00:49;;;;;;;17.92;12.40;;;24.50;74.40;;;;;;4680575;30;20065;-86
2021/10/04 11:03:16;;;;;;;;;;;24.60;75.00;;;;;;4681966;30;20061;-86
2021/10/04 11:05:42;;;;;;;18.25;13.00;;;24.70;73.90;;;;;;4681099;30;19919;-85
2021/10/04 11:08:09;;;;;;;24.67;12.35;;;24.90;72.80;;;;;;4660455;30;20065;-86
2021/10/04 11:10:58;;;;;;;20.55;12.30;;;24.90;72.00;;;;;;4687305;30;20414;-85
2021/10/04 11:13:35;;;;;;;22.65;12.27;;;25.00;73.30;;;;;;4730417;30;20233;-85
2021/10/04 11:16:10;;;;;;;17.95;11.98;;;25.10;73.30;;;;;;4729942;30;20041;-85
2021/10/04 11:18:42;;;;;;;17.60;11.25;;;25.20;71.00;;;;;;4703073;30;20091;-85
2021/10/04 11:21:11;;;;;;;17.17;11.98;;;25.20;73.00;;;;;;4715385;30;20041;-85
2021/10/04 11:23:42;;;;;;;20.83;12.32;;;25.30;71.50;;;;;;4717082;30;20079;-86
2021/10/04 11:26:12;;;;;;;17.13;10.95;;;25.20;70.60;;;;;;4703125;30;20037;-86
2021/10/04 11:28:40;;;;;;;19.70;12.15;;;25.10;72.60;;;;;;4703171;30;20033;-85
2021/10/04 11:31:12;;;;;;;19.35;11.45;;;25.20;71.10;;;;;;4702876;30;20033;-85
2021/10/04 11:33:53;;;;;;;15.35;10.48;;;25.20;71.10;;;;;;4716419;30;20044;-85
2021/10/04 11:36:25;;;;;;;18.42;10.38;;;25.10;70.40;;;;;;4716660;30;20232;-85
2021/10/04 11:38:54;;;;;;;18.00;11.13;;;25.10;71.10;;;;;;4716266;30;20049;-85
2021/10/04 11:41:33;;;;;;;19.35;10.38;;;25.10;70.50;;;;;;4716666;30;20104;-85
2021/10/04 11:44:04;;;;;;;15.98;9.63;;;25.20;70.70;;;;;;4702218;30;20055;-85
2021/10/04 11:46:52;;;;;;;15.38;10.38;;;25.20;70.90;;;;;;4702259;30;20294;-84
2021/10/04 11:49:24;;;;;;;15.57;10.77;;;25.30;69.80;;;;;;4716243;30;20033;-84
2021/10/04 11:51:52;;;;;;;19.60;11.13;;;25.20;69.00;;;;;;4716033;30;20104;-84
2021/10/04 11:54:42;;;;;;;15.75;10.18;;;25.20;69.00;;;;;;4715739;30;20044;-84
2021/10/04 11:57:10;;;;;;;16.48;11.75;;;25.20;69.60;;;;;;4716307;30;20060;-85
2021/10/04 11:59:59;;;;;;;16.48;10.68;;;25.20;68.00;;;;;;4702564;30;20040;-85
2021/10/04 12:02:37;;;;;;;17.63;10.65;;;25.10;69.40;;;;;;4714484;30;20037;-85
2021/10/04 12:05:15;;;;;;;17.85;10.15;;;25.10;68.80;;;;;;4713628;30;20096;-85
2021/10/04 12:08:02;;;;;;;22.60;10.48;;;25.10;68.10;;;;;;4714009;30;20344;-85
2021/10/04 12:10:56;;;;;;;18.77;10.68;;;25.00;68.40;;;;;;4727944;30;20033;-85
2021/10/04 12:13:36;;;;;;;14.35;9.55;;;25.00;69.00;;;;;;4713946;30;20270;-85
2021/10/04 12:16:13;;;;;;;12.02;9.15;;;25.10;69.40;;;;;;4713744;30;20041;-85
2021/10/04 12:18:50;;;;;;;17.52;8.23;;;25.20;68.50;;;;;;4713208;30;20091;-85
2021/10/04 12:21:21;;;;;;;18.58;8.10;;;25.10;69.90;;;;;;4709076;30;20045;-85
2021/10/04 12:24:08;;;;;;;12.18;8.50;;;25.20;69.60;;;;;;4710390;30;20087;-85
2021/10/04 12:26:49;;;;;;;12.48;7.93;;;25.30;69.00;;;;;;4710182;30;20037;-85
2021/10/04 12:29:33;;;;;;;16.58;8.00;;;25.20;67.70;;;;;;4720211;30;20030;-85
2021/10/04 12:32:37;;;;;;;11.25;7.60;;;25.20;67.90;;;;;;4706379;30;20044;-85
2021/10/04 12:35:09;;;;;;;11.68;7.75;;;25.30;66.60;;;;;;4677426;30;20065;-85
2021/10/04 12:37:57;;;;;;;15.23;7.25;;;25.20;66.50;;;;;;4678059;30;20289;-85
2021/10/04 12:40:30;;;;;;;12.82;7.28;;;25.10;68.00;;;;;;4692735;30;20041;-85
2021/10/04 12:43:04;;;;;;;13.45;7.88;;;25.10;67.00;;;;;;4678908;30;20361;-85
2021/10/04 12:45:31;;;;;;;12.00;6.78;;;25.00;67.70;;;;;;4692150;30;20053;-85
2021/10/04 12:48:17;;;;;;;11.07;7.80;;;25.00;68.90;;;;;;4692366;30;20109;-85
2021/10/04 12:50:44;;;;;;;19.23;7.85;;;25.10;68.00;;;;;;4685592;30;20053;-85
2021/10/04 12:53:11;;;;;;;10.43;6.43;;;25.00;67.80;;;;;;4677138;30;20127;-85
2021/10/04 12:55:51;;;;;;;10.32;7.00;;;25.00;68.60;;;;;;4692139;30;20084;-85
2021/10/04 12:58:17;;;;;;;9.82;6.70;;;25.10;69.00;;;;;;4692038;30;20045;-85
2021/10/04 13:00:43;;;;;;;11.18;7.32;;;25.00;69.10;;;;;;4677628;30;20361;-85
2021/10/04 13:03:10;;;;;;;11.13;6.22;;;25.10;68.90;;;;;;4678158;30;20072;-85
2021/10/04 13:05:35;;;;;;;12.20;6.53;;;25.10;68.50;;;;;;4692348;30;20096;-85
2021/10/04 13:08:02;;;;;;;11.45;6.15;;;25.10;68.20;;;;;;4681514;30;20112;-85
2021/10/04 13:10:27;;;;;;;11.47;5.73;;;25.20;68.50;;;;;;4727210;30;20109;-85
2021/10/04 13:12:58;;;;;;;12.25;6.32;;;25.30;68.90;;;;;;4712786;30;20288;-85
2021/10/04 13:15:25;;;;;;;10.38;6.10;;;25.30;68.00;;;;;;4728846;30;20040;-85
2021/10/04 13:17:51;;;;;;;14.88;6.55;;;25.40;68.30;;;;;;4715903;30;20033;-85
2021/10/04 13:20:17;;;;;;;12.13;7.10;;;25.30;68.70;;;;;;4730143;30;20045;-86
2021/10/04 13:22:42;;;;;;;8.25;6.10;;;25.40;69.30;;;;;;4729931;30;20056;-85
2021/10/04 13:25:11;;;;;;;15.50;6.80;;;25.40;68.60;;;;;;4730658;30;20033;-85
2021/10/04 13:27:38;;;;;;;15.13;6.78;;;25.50;68.50;;;;;;4730175;30;20029;-85
2021/10/04 13:30:08;;;;;;;10.18;5.75;;;25.50;68.20;;;;;;4717728;30;20037;-86
2021/10/04 13:32:34;;;;;;;15.73;6.60;;;25.50;67.40;;;;;;4726895;30;20224;-85
2021/10/04 13:35:00;;;;;;;14.60;5.97;;;25.50;68.60;;;;;;4712381;30;20268;-86
2021/10/04 13:37:26;;;;;;;13.87;6.70;;;25.40;67.20;;;;;;4726622;30;20037;-85
2021/10/04 13:39:52;;;;;;;18.35;6.05;;;25.30;68.40;;;;;;4712461;30;20347;-86
2021/10/04 13:42:18;;;;;;;13.20;5.85;;;25.40;68.40;;;;;;4726871;30;20073;-86
2021/10/04 13:44:44;;;;;;;12.00;5.50;;;25.40;67.70;;;;;;4727292;30;20305;-86
2021/10/04 13:47:10;;;;;;;12.55;6.10;;;25.50;67.40;;;;;;4727302;30;20053;-86
2021/10/04 13:49:36;;;;;;;9.40;5.43;;;25.40;68.40;;;;;;4726939;30;20264;-86
2021/10/04 13:52:03;;;;;;;27.65;5.53;;;25.40;67.90;;;;;;4726790;30;20041;-86
2021/10/04 13:54:29;;;;;;;15.80;5.78;;;25.40;67.50;;;;;;4727701;30;20351;-86
2021/10/04 13:56:55;;;;;;;8.55;5.60;;;25.40;67.90;;;;;;4728740;30;20029;-86
2021/10/04 13:59:21;;;;;;;12.30;5.60;;;25.40;67.60;;;;;;4729081;30;20075;-86
2021/10/04 14:01:47;;;;;;;9.15;5.85;;;25.30;67.20;;;;;;4728746;30;20336;-86
2021/10/04 14:04:13;;;;;;;8.48;5.38;;;25.30;67.10;;;;;;4729307;30;20114;-86
2021/10/04 14:06:38;;;;;;;11.35;5.63;;;25.30;66.20;;;;;;4732609;30;20033;-85
2021/10/04 14:09:04;;;;;;;9.52;5.82;;;25.30;66.50;;;;;;4731951;30;20033;-85
2021/10/04 14:11:30;;;;;;;8.82;5.53;;;25.30;66.30;;;;;;4731859;30;20268;-85
2021/10/04 14:13:56;;;;;;;9.77;5.13;;;25.30;65.50;;;;;;4718417;30;20073;-85
2021/10/04 14:16:22;;;;;;;7.97;5.18;;;25.40;66.20;;;;;;4732228;30;20102;-86
2021/10/04 14:18:48;;;;;;;12.83;6.17;;;25.40;66.20;;;;;;4717521;30;20044;-87
2021/10/04 14:21:14;;;;;;;17.85;5.55;;;25.20;67.40;;;;;;4717292;30;20040;-86
2021/10/04 14:23:39;;;;;;;13.15;5.57;;;25.10;67.90;;;;;;4704936;30;20221;-80
2021/10/04 14:26:05;;;;;;;12.48;5.90;;;25.10;68.60;;;;;;4722787;30;20033;-79
2021/10/04 14:28:31;;;;;;;8.30;5.45;;;25.20;67.10;;;;;;4745158;30;20033;-80
2021/10/04 14:30:57;;;;;;;7.85;5.32;;;25.10;67.30;;;;;;4750061;30;20029;-79
2021/10/04 14:33:26;;;;;;;15.68;6.50;;;25.10;68.20;;;;;;4721645;30;20065;-79
2021/10/04 14:35:53;;;;;;;9.63;5.53;;;25.10;68.60;;;;;;4736005;30;20112;-79
2021/10/04 14:38:21;;;;;;;12.73;6.00;;;25.10;67.80;;;;;;4733327;30;20033;-79
2021/10/04 14:40:48;;;;;;;11.00;5.90;;;25.10;68.70;;;;;;4705609;30;20041;-80
2021/10/04 14:43:14;;;;;;;13.70;5.68;;;25.20;67.60;;;;;;4719474;30;20263;-80
2021/10/04 14:45:43;;;;;;;13.57;5.82;;;25.10;68.80;;;;;;4704020;30;20114;-79
2021/10/04 14:48:09;;;;;;;10.43;6.00;;;25.10;67.90;;;;;;4718806;30;20041;-80
2021/10/04 14:50:35;;;;;;;17.63;6.15;;;25.10;69.00;;;;;;4718635;30;20041;-80
2021/10/04 14:53:02;;;;;;;14.55;5.28;;;25.10;68.70;;;;;;4716770;30;20055;-86
2021/10/04 14:55:28;;;;;;;6.07;4.65;;;25.00;68.70;;;;;;4716308;30;20036;-86
2021/10/04 14:57:54;;;;;;;10.48;5.35;;;25.10;67.00;;;;;;4715924;30;20048;-87
2021/10/04 15:00:20;;;;;;;9.02;4.97;;;25.10;68.20;;;;;;4715726;30;20037;-87
2021/10/04 15:02:46;;;;;;;10.95;4.78;;;25.00;67.40;;;;;;4707688;30;20072;-86
2021/10/04 15:05:19;;;;;;;8.18;4.90;;;25.00;68.50;;;;;;4716458;30;20046;-86
2021/10/04 15:07:45;;;;;;;11.95;5.30;;;25.00;67.30;;;;;;4716312;30;20033;-87
2021/10/04 15:10:11;;;;;;;11.13;4.72;;;25.00;67.80;;;;;;4715165;30;20263;-86
2021/10/04 15:12:37;;;;;;;9.35;5.20;;;25.00;67.50;;;;;;4701757;30;20041;-87
2021/10/04 15:15:03;;;;;;;12.05;5.70;;;25.00;68.20;;;;;;4701501;30;20061;-86
2021/10/04 15:17:34;;;;;;;9.48;4.95;;;24.90;69.30;;;;;;4716281;30;20044;-87
2021/10/04 15:20:00;;;;;;;10.32;5.38;;;24.90;67.90;;;;;;4716310;30;20037;-87
2021/10/04 15:22:26;;;;;;;9.13;5.47;;;24.80;69.20;;;;;;4716348;30;20528;-86
2021/10/04 15:24:52;;;;;;;8.77;5.05;;;24.70;69.80;;;;;;4716772;30;20025;-86